Time;durP1;ratioP1;P1;durP2;ratioP2;P2;SDS_P1;SDS_P2;PMS_P1;PMS_P2;Temp;Humidity;BMP_temperature;BMP_pressure;BME280_temperature;BME280_humidity;BME280_pressure;Samples;Min_cycle;Max_cycle;Signal;HPM_P1;HPM_P2
2020/12/14 08:54:07;;;;;;;;;;;;;;;;;;;;;
2020/12/14 09:35:51;;;;;;;;;;;;;;;;;;;;;
2020/12/14 09:54:43;;;;;;;90.22;41.70;;;;;;;-0.94;100.00;99524.23;1689639;76;21471;-75
2020/12/14 10:12:38;;;;;;;136.40;58.87;;;;;;;-0.92;100.00;99512.52;1824832;77;25674;-74
2020/12/14 10:22:55;;;;;;;;;;;;;;;;;;;;;
2020/12/14 11:48:23;;;;;;;81.35;33.83;;;;;;;-0.78;100.00;99545.16;1745997;76;21794;-74
2020/12/14 14:10:47;;;;;;;;;;;;;;;;;;;;;
2020/12/14 14:13:40;;;;;;;144.17;64.60;;;;;;;-0.85;100.00;99606.17;1805876;78;21375;-74
2020/12/14 14:16:28;;;;;;;;;;;;;;;;;;;;;
2020/12/14 14:18:55;;;;;;;159.35;72.32;;;;;;;-0.81;100.00;99610.57;1873107;76;22819;-73
2020/12/14 16:58:54;;;;;;;;;;;;;;;;;;;;;
2020/12/14 17:07:55;;;;;;;82.50;34.35;;;;;;;-1.10;100.00;99727.55;1767316;78;21182;-73
2020/12/14 17:10:48;;;;;;;88.27;37.83;;;;;;;-1.10;100.00;99724.92;1747354;80;21214;-74
2020/12/14 17:13:43;;;;;;;75.15;37.48;;;;;;;-1.08;100.00;99716.83;1759785;80;21328;-73
2020/12/14 17:16:16;;;;;;;94.65;39.78;;;;;;;-1.04;100.00;99719.44;1758886;80;21098;-74
2020/12/14 17:18:51;;;;;;;78.75;34.85;;;;;;;-1.03;100.00;99719.75;1757807;79;21190;-74
2020/12/14 17:25:43;;;;;;;105.20;37.10;;;;;;;-1.02;100.00;99716.14;1738067;79;21153;-74
2020/12/14 17:28:49;;;;;;;82.88;34.95;;;;;;;-1.03;100.00;99717.63;1717319;81;22186;-75
2020/12/14 17:32:04;;;;;;;72.20;32.75;;;;;;;-1.04;100.00;99721.27;1631045;86;21247;-75
2020/12/14 18:21:56;;;;;;;58.58;23.95;;;;;;;-1.08;100.00;99745.80;1605321;88;21318;-74
2020/12/14 21:27:29;;;;;;;42.20;20.45;;;;;;;-1.24;100.00;99802.54;1618599;84;21554;-74
2020/12/14 21:30:02;;;;;;;52.67;23.95;;;;;;;-1.23;100.00;99797.08;1607796;87;21220;-74
2020/12/14 21:36:10;;;;;;;40.63;20.70;;;;;;;-1.21;100.00;99799.55;1522097;89;21393;-76
2020/12/14 21:39:31;;;;;;;;;;;;;;;;;;;;;
2020/12/14 21:42:25;;;;;;;88.30;29.77;;;;;;;-1.19;100.00;99807.61;1839226;75;27754;-73
2020/12/14 21:44:57;;;;;;;53.10;23.18;;;;;;;-1.21;100.00;99811.41;1759407;80;21160;-73
2020/12/14 21:47:53;;;;;;;76.40;31.37;;;;;;;-1.18;100.00;99807.92;1824907;77;28491;-73
2020/12/14 21:51:09;;;;;;;46.45;21.73;;;;;;;-1.18;100.00;99809.74;1799434;78;21409;-75
2020/12/14 21:53:46;;;;;;;47.75;22.25;;;;;;;-1.17;100.00;99814.03;1789303;78;21537;-74
2020/12/14 22:14:07;;;;;;;54.30;22.80;;;;;;;-1.20;100.00;99808.61;1813925;78;21110;-74
2020/12/14 22:17:18;;;;;;;51.60;22.90;;;;;;;-1.22;100.00;99801.38;1794340;79;21115;-74
2020/12/14 22:19:48;;;;;;;63.65;27.85;;;;;;;-1.22;100.00;99799.24;1795364;78;21154;-74
2020/12/14 22:29:56;;;;;;;57.83;25.35;;;;;;;-1.22;100.00;99797.92;1773154;78;21396;-73
2020/12/14 22:32:27;;;;;;;70.22;27.93;;;;;;;-1.24;100.00;99788.87;1786083;79;21106;-71
2020/12/14 22:34:57;;;;;;;70.70;28.70;;;;;;;-1.25;100.00;99792.51;1774109;79;21154;-73
2020/12/14 22:37:25;;;;;;;53.08;22.80;;;;;;;-1.24;100.00;99791.50;1743487;80;21594;-74
2020/12/14 22:39:55;;;;;;;66.00;25.27;;;;;;;-1.25;100.00;99788.55;1762354;80;21314;-74
2020/12/14 22:42:23;;;;;;;71.20;28.57;;;;;;;-1.25;100.00;99785.08;1741424;80;21057;-74
2020/12/14 22:44:51;;;;;;;76.45;27.93;;;;;;;-1.25;100.00;99787.23;1764493;80;21209;-74
2020/12/14 22:47:19;;;;;;;80.45;27.22;;;;;;;-1.25;100.00;99785.92;1740960;80;21591;-74
2020/12/14 22:49:48;;;;;;;;;;;;;;;-1.25;100.00;99781.97;1738100;80;21140;-74
2020/12/14 22:52:16;;;;;;;67.70;24.15;;;;;;;-1.24;100.00;99786.73;1756032;80;20467;-74
2020/12/14 22:54:48;;;;;;;65.00;26.80;;;;;;;-1.25;100.00;99792.51;1757455;80;21488;-74
2020/12/14 22:57:24;;;;;;;77.62;30.48;;;;;;;-1.25;100.00;99787.71;1758896;79;21218;-72
2020/12/14 22:59:55;;;;;;;78.22;28.20;;;;;;;-1.25;100.00;99789.03;1763284;80;21100;-73
2020/12/14 23:02:23;;;;;;;97.40;32.65;;;;;;;-1.25;100.00;99790.34;1748326;80;21595;-73
2020/12/14 23:04:51;;;;;;;83.65;29.85;;;;;;;-1.26;100.00;99790.03;1776889;80;21504;-73
2020/12/14 23:07:22;;;;;;;72.47;27.20;;;;;;;-1.26;100.00;99791.35;1765681;80;21064;-74
2020/12/14 23:09:50;;;;;;;76.87;29.52;;;;;;;-1.27;100.00;99797.12;1771575;80;21189;-73
2020/12/14 23:12:24;;;;;;;87.30;30.12;;;;;;;-1.27;100.00;99797.12;1764220;80;21071;-74
2020/12/14 23:14:53;;;;;;;82.82;28.12;;;;;;;-1.27;100.00;99794.95;1754695;80;21639;-74
2020/12/14 23:17:25;;;;;;;80.00;29.30;;;;;;;-1.28;100.00;99796.78;1742044;80;21059;-74
2020/12/14 23:19:53;;;;;;;91.53;33.38;;;;;;;-1.27;100.00;99795.80;1755025;80;21052;-74
2020/12/14 23:22:21;;;;;;;91.87;31.37;;;;;;;-1.28;100.00;99795.96;1765161;80;26918;-73
2020/12/14 23:24:50;;;;;;;106.20;34.20;;;;;;;-1.27;100.00;99801.55;1766930;80;21190;-74
2020/12/14 23:27:18;;;;;;;108.47;33.20;;;;;;;-1.26;100.00;99796.61;1776331;80;21147;-73
2020/12/14 23:29:46;;;;;;;84.05;32.05;;;;;;;-1.27;100.00;99801.07;1755479;80;20950;-73
2020/12/14 23:32:14;;;;;;;91.50;29.52;;;;;;;-1.26;100.00;99801.88;1767003;80;21187;-73
2020/12/14 23:34:43;;;;;;;94.13;33.28;;;;;;;-1.27;100.00;99801.55;1765117;80;21330;-74
2020/12/14 23:37:12;;;;;;;89.95;34.00;;;;;;;-1.26;100.00;99805.84;1770875;80;21490;-73
2020/12/14 23:39:44;;;;;;;131.30;55.92;;;;;;;-1.25;100.00;99807.47;1750031;80;21060;-73
2020/12/14 23:42:14;;;;;;;133.95;54.20;;;;;;;-1.25;100.00;99806.99;1779189;80;21579;-73
2020/12/14 23:44:51;;;;;;;197.90;71.25;;;;;;;-1.24;100.00;99812.57;1754392;80;21206;-75
2020/12/14 23:47:20;;;;;;;187.77;75.37;;;;;;;-1.24;100.00;99803.86;1758072;80;21372;-73
2020/12/14 23:49:48;;;;;;;186.62;73.57;;;;;;;-1.24;100.00;99813.89;1760317;80;21501;-73
2020/12/14 23:52:18;;;;;;;140.73;64.03;;;;;;;-1.23;100.00;99813.39;1776702;80;21460;-73
2020/12/14 23:54:46;;;;;;;158.80;73.28;;;;;;;-1.24;100.00;99813.08;1776066;80;21195;-73
2020/12/14 23:57:14;;;;;;;195.95;85.05;;;;;;;-1.24;100.00;99817.84;1775872;80;21638;-73
2020/12/14 23:59:42;;;;;;;;;;;;;;;-1.23;100.00;99824.73;1752761;80;22523;-73
